Time;durP1;ratioP1;P1;durP2;ratioP2;P2;SDS_P1;SDS_P2;PMS_P1;PMS_P2;Temp;Humidity;BMP_temperature;BMP_pressure;BME280_temperature;BME280_humidity;BME280_pressure;Samples;Min_cycle;Max_cycle;Signal;HPM_P1;HPM_P2
2022/12/10 03:35:40;;;;;;;32.70;20.13;;;25.30;72.70;;;;;;5065140;28;20032;-65
2022/12/10 03:38:07;;;;;;;30.73;20.63;;;25.30;73.00;;;;;;5054696;28;20684;-66
2022/12/10 03:40:34;;;;;;;24.88;15.02;;;25.30;73.00;;;;;;5061865;28;20432;-64
2022/12/10 03:43:00;;;;;;;22.65;10.98;;;25.30;72.80;;;;;;5064103;28;20029;-65
2022/12/10 03:45:28;;;;;;;14.57;9.05;;;25.30;72.70;;;;;;5066754;28;20040;-66
2022/12/10 03:47:54;;;;;;;19.38;8.63;;;25.30;72.50;;;;;;5065027;28;20043;-64
2022/12/10 03:50:21;;;;;;;17.15;7.30;;;25.20;72.40;;;;;;5065976;28;20024;-66
2022/12/10 03:52:47;;;;;;;15.88;6.78;;;25.20;72.30;;;;;;5061291;28;20028;-64
2022/12/10 03:55:14;;;;;;;15.23;6.60;;;25.30;72.40;;;;;;5066856;28;20089;-65
2022/12/10 03:57:40;;;;;;;18.05;7.53;;;25.20;72.30;;;;;;5064117;28;20448;-64
2022/12/10 04:00:08;;;;;;;16.75;6.97;;;25.20;72.20;;;;;;5058968;28;20021;-64
2022/12/10 04:02:34;;;;;;;24.35;12.05;;;25.20;72.30;;;;;;5064792;28;20027;-66
2022/12/10 04:05:01;;;;;;;30.80;16.77;;;25.20;72.40;;;;;;5064602;28;20017;-65
2022/12/10 06:13:58;;;;;;;7.60;3.97;;;25.00;71.80;;;;;;5090391;27;21092;-71
2022/12/10 06:16:26;;;;;;;11.25;5.32;;;25.50;72.00;;;;;;5078766;28;20029;-69
2022/12/10 06:18:53;;;;;;;11.25;4.13;;;25.50;71.70;;;;;;5080773;28;20012;-71
2022/12/10 06:21:21;;;;;;;8.05;2.65;;;25.50;71.40;;;;;;5078122;28;20057;-71
2022/12/10 06:23:51;;;;;;;15.05;3.55;;;25.60;71.10;;;;;;5075562;28;20016;-71
2022/12/10 06:26:23;;;;;;;11.38;4.38;;;25.70;70.80;;;;;;5071855;28;20028;-70
2022/12/10 06:28:50;;;;;;;10.57;3.40;;;25.70;70.40;;;;;;5073102;28;20024;-69
2022/12/10 06:31:18;;;;;;;15.90;5.00;;;25.80;70.30;;;;;;5073976;28;20103;-69
2022/12/10 06:33:45;;;;;;;12.48;5.47;;;25.90;70.10;;;;;;5075422;28;20032;-69
2022/12/10 06:36:14;;;;;;;16.10;6.38;;;25.90;70.00;;;;;;5077072;28;20025;-70
2022/12/10 06:38:41;;;;;;;10.18;5.80;;;25.90;69.80;;;;;;5074654;28;20048;-71
2022/12/10 06:41:10;;;;;;;12.65;8.05;;;26.00;69.80;;;;;;5072055;28;20112;-70
2022/12/10 06:43:37;;;;;;;10.02;6.93;;;26.00;69.60;;;;;;5074016;28;20025;-69
2022/12/10 06:46:08;;;;;;;9.65;5.38;;;26.00;69.50;;;;;;5080966;28;20017;-69
2022/12/10 06:48:36;;;;;;;16.05;6.40;;;26.10;69.50;;;;;;5073847;28;20029;-69
2022/12/10 06:51:04;;;;;;;16.23;5.68;;;26.10;69.30;;;;;;5077530;28;20028;-69
2022/12/10 06:53:31;;;;;;;12.88;4.63;;;26.10;69.10;;;;;;5078928;28;20445;-70
2022/12/10 06:55:59;;;;;;;14.63;5.20;;;26.20;69.10;;;;;;5076784;28;20024;-69
2022/12/10 06:58:28;;;;;;;10.40;3.78;;;26.20;69.00;;;;;;5077853;28;20023;-69
2022/12/10 07:01:02;;;;;;;10.63;4.40;;;26.20;68.80;;;;;;5080590;28;20008;-69
2022/12/10 07:03:28;;;;;;;14.57;3.97;;;26.30;69.00;;;;;;5074307;28;20037;-69
2022/12/10 07:05:58;;;;;;;9.98;4.55;;;26.30;69.50;;;;;;5078531;28;20045;-69
2022/12/10 07:08:24;;;;;;;14.70;3.83;;;26.30;69.80;;;;;;5079653;28;20502;-68
2022/12/10 07:10:51;;;;;;;21.17;9.73;;;26.40;70.50;;;;;;5070581;28;20534;-68
2022/12/10 07:13:18;;;;;;;33.53;22.90;;;26.40;71.00;;;;;;5070921;28;20376;-68
2022/12/10 07:15:44;;;;;;;24.30;18.88;;;26.50;71.60;;;;;;5062457;28;20031;-68
2022/12/10 07:18:10;;;;;;;29.02;11.55;;;26.50;72.10;;;;;;5060554;28;20070;-68
2022/12/10 07:20:37;;;;;;;20.13;9.50;;;26.60;72.50;;;;;;5057958;28;20017;-69
2022/12/10 07:23:03;;;;;;;13.25;8.32;;;26.60;72.70;;;;;;5064301;28;20028;-68
2022/12/10 07:25:30;;;;;;;19.80;8.65;;;26.60;71.90;;;;;;5057832;28;20021;-68
2022/12/10 07:27:56;;;;;;;15.88;6.60;;;26.70;71.10;;;;;;5059339;28;20103;-68
2022/12/10 07:30:23;;;;;;;11.48;3.72;;;26.70;71.30;;;;;;5058213;28;20025;-68
2022/12/10 07:32:49;;;;;;;11.85;4.45;;;26.70;71.40;;;;;;5062757;28;20032;-69
2022/12/10 07:35:16;;;;;;;15.05;8.55;;;26.80;71.50;;;;;;5059631;28;20163;-69
2022/12/10 07:37:43;;;;;;;26.55;20.40;;;26.80;70.90;;;;;;5061798;28;20090;-69
2022/12/10 07:40:10;;;;;;;30.50;16.55;;;26.90;70.00;;;;;;5057790;28;20017;-69
2022/12/10 07:42:36;;;;;;;15.68;8.68;;;26.90;69.30;;;;;;5062360;28;20035;-69
2022/12/10 07:45:03;;;;;;;15.75;6.97;;;26.90;68.80;;;;;;5053198;28;20016;-69
2022/12/10 07:47:30;;;;;;;18.25;7.22;;;27.00;68.70;;;;;;5058857;28;20021;-69
2022/12/10 07:49:56;;;;;;;16.60;5.00;;;27.00;68.50;;;;;;5052014;28;20070;-69
2022/12/10 07:52:23;;;;;;;23.42;5.20;;;27.00;68.40;;;;;;5048001;28;20915;-69
2022/12/10 07:54:49;;;;;;;15.07;4.40;;;27.00;68.90;;;;;;5046380;28;20025;-69
2022/12/10 07:57:16;;;;;;;10.80;4.50;;;27.10;69.70;;;;;;5046875;28;20659;-69
2022/12/10 07:59:42;;;;;;;13.10;4.38;;;27.10;70.50;;;;;;5052754;28;20078;-69
2022/12/10 08:02:09;;;;;;;13.25;4.07;;;27.10;71.00;;;;;;5057667;28;20130;-69
2022/12/10 08:04:37;;;;;;;16.17;3.58;;;27.20;72.00;;;;;;5056794;28;20044;-69
2022/12/10 08:07:04;;;;;;;14.55;3.28;;;27.20;71.50;;;;;;5059959;28;20033;-69
2022/12/10 08:09:31;;;;;;;15.57;2.97;;;27.30;71.00;;;;;;5061533;28;20019;-69
2022/12/10 08:11:57;;;;;;;8.63;2.42;;;27.30;70.90;;;;;;5061757;28;20037;-69
2022/12/10 08:14:24;;;;;;;9.10;2.30;;;27.30;70.80;;;;;;5058290;28;20104;-69
2022/12/10 08:16:50;;;;;;;21.40;2.90;;;27.30;70.80;;;;;;5059287;28;20014;-69
2022/12/10 08:19:17;;;;;;;16.65;3.10;;;27.40;70.10;;;;;;5056475;28;20558;-69
2022/12/10 08:21:43;;;;;;;13.13;3.80;;;27.40;69.70;;;;;;5059484;28;20402;-69
2022/12/10 08:24:10;;;;;;;21.42;9.70;;;27.50;69.50;;;;;;5057487;28;20013;-69
2022/12/10 08:26:37;;;;;;;10.80;3.50;;;27.50;69.40;;;;;;5056384;28;20418;-69
2022/12/10 08:29:03;;;;;;;6.53;2.53;;;27.50;69.10;;;;;;5060781;28;20017;-69
2022/12/10 08:31:30;;;;;;;5.53;2.47;;;27.50;68.50;;;;;;5058440;28;20039;-69
2022/12/10 08:33:57;;;;;;;8.82;2.47;;;27.60;68.10;;;;;;5059318;28;20020;-69
2022/12/10 08:36:23;;;;;;;9.15;2.30;;;27.60;67.80;;;;;;5060623;28;20125;-69
2022/12/10 08:38:50;;;;;;;9.73;2.42;;;27.60;67.70;;;;;;5063365;28;20028;-69
2022/12/10 08:41:21;;;;;;;10.70;1.88;;;27.60;67.70;;;;;;5061805;28;20533;-70
2022/12/10 08:43:49;;;;;;;9.02;2.88;;;27.70;67.80;;;;;;5053877;28;20029;-69
2022/12/10 08:46:16;;;;;;;18.58;2.72;;;27.70;67.50;;;;;;5057506;28;20016;-69
2022/12/10 08:48:43;;;;;;;2.75;2.13;;;27.80;67.50;;;;;;5067029;28;20031;-69
2022/12/10 08:51:13;;;;;;;3.88;1.60;;;27.80;67.50;;;;;;5063087;28;20025;-70
2022/12/10 08:53:39;;;;;;;5.05;1.75;;;27.90;67.30;;;;;;5062653;28;20135;-70
2022/12/10 08:56:07;;;;;;;5.80;2.30;;;28.00;67.60;;;;;;5057890;28;20021;-70
2022/12/10 08:58:33;;;;;;;10.13;3.17;;;28.00;66.50;;;;;;5053549;28;20066;-70
2022/12/10 09:01:01;;;;;;;4.97;2.03;;;28.10;66.20;;;;;;5052788;28;20517;-71
2022/12/10 09:03:27;;;;;;;29.98;12.63;;;28.10;65.90;;;;;;5055415;28;20037;-71
2022/12/10 09:05:54;;;;;;;18.67;7.97;;;28.10;65.70;;;;;;5064400;28;20024;-71
2022/12/10 09:08:20;;;;;;;15.15;5.55;;;28.20;65.70;;;;;;5049856;28;20500;-71
2022/12/10 09:10:47;;;;;;;9.98;3.83;;;28.20;65.90;;;;;;5056528;28;20040;-71
2022/12/10 09:13:13;;;;;;;5.32;2.40;;;28.30;65.70;;;;;;5059468;28;20587;-70
2022/12/10 09:15:40;;;;;;;5.03;1.88;;;28.30;65.60;;;;;;5060627;28;20116;-72
2022/12/10 09:18:06;;;;;;;10.88;2.70;;;28.40;65.50;;;;;;5059201;28;20021;-70
2022/12/10 09:20:33;;;;;;;6.90;1.90;;;28.40;65.30;;;;;;5055924;28;20005;-70
2022/12/10 09:23:00;;;;;;;4.68;1.48;;;28.40;65.10;;;;;;5061895;28;20039;-71
2022/12/10 09:25:26;;;;;;;14.85;2.20;;;28.50;65.10;;;;;;5057202;28;20016;-71
2022/12/10 09:27:53;;;;;;;22.02;3.50;;;28.60;65.10;;;;;;5056974;28;20423;-70
2022/12/10 09:30:19;;;;;;;24.77;3.95;;;28.60;64.90;;;;;;5056135;28;20024;-70
2022/12/10 09:32:46;;;;;;;16.42;3.50;;;28.70;65.20;;;;;;5052828;28;20442;-71
2022/12/10 09:35:12;;;;;;;13.85;2.65;;;28.70;64.80;;;;;;5053747;28;20031;-70
2022/12/10 09:37:39;;;;;;;12.35;2.00;;;28.70;64.30;;;;;;5062505;28;20028;-70
2022/12/10 09:40:06;;;;;;;8.30;2.45;;;28.80;64.60;;;;;;5062614;28;20021;-70
2022/12/10 09:42:50;;;;;;;7.28;2.55;;;28.80;64.30;;;;;;5058273;28;20041;-70
2022/12/10 09:45:45;;;;;;;9.87;3.47;;;28.90;64.30;;;;;;5056932;28;20029;-68
2022/12/10 09:48:11;;;;;;;20.80;16.13;;;28.90;64.10;;;;;;5055946;28;20390;-68
2022/12/10 09:51:04;;;;;;;13.90;7.05;;;29.00;63.90;;;;;;5056072;28;20091;-69
2022/12/10 09:53:32;;;;;;;21.67;5.78;;;29.00;63.70;;;;;;5056845;28;20048;-69
2022/12/10 09:55:59;;;;;;;7.05;2.70;;;29.00;64.00;;;;;;5062966;28;20096;-69
2022/12/10 09:58:27;;;;;;;51.90;6.80;;;29.10;63.80;;;;;;5055594;28;20024;-69
2022/12/10 10:01:02;;;;;;;15.40;3.13;;;29.20;63.50;;;;;;5046296;28;20036;-70
2022/12/10 10:03:35;;;;;;;11.10;2.70;;;29.20;63.30;;;;;;5056028;28;20520;-69
2022/12/10 10:06:04;;;;;;;15.80;3.92;;;29.20;63.20;;;;;;5051284;28;20027;-70
2022/12/10 10:08:36;;;;;;;11.48;3.05;;;29.30;63.70;;;;;;5058264;28;20075;-69
2022/12/10 10:11:04;;;;;;;11.98;3.47;;;29.40;63.30;;;;;;5054202;28;20029;-70
2022/12/10 10:13:50;;;;;;;9.90;3.97;;;29.40;63.20;;;;;;5060184;28;21088;-70
2022/12/10 10:16:25;;;;;;;13.68;4.93;;;29.40;63.10;;;;;;5057114;28;20172;-70
2022/12/10 10:19:17;;;;;;;12.68;3.83;;;29.50;62.80;;;;;;5059006;28;20546;-70
2022/12/10 10:21:47;;;;;;;10.05;4.20;;;29.60;62.80;;;;;;5060155;28;20116;-69
2022/12/10 10:24:17;;;;;;;15.18;3.92;;;29.70;62.70;;;;;;5052114;28;20025;-70
2022/12/10 10:26:45;;;;;;;16.05;3.17;;;29.70;62.70;;;;;;5059115;28;20084;-69
2022/12/10 10:29:19;;;;;;;14.80;3.33;;;29.70;62.60;;;;;;5060201;28;20027;-69
2022/12/10 10:31:46;;;;;;;26.75;4.47;;;29.70;62.30;;;;;;5048860;28;20021;-70
2022/12/10 10:34:21;;;;;;;22.05;4.18;;;29.80;62.30;;;;;;5053251;28;20119;-70
2022/12/10 10:36:55;;;;;;;20.42;4.70;;;29.90;62.40;;;;;;5059443;28;20432;-69
2022/12/10 10:39:22;;;;;;;11.77;3.63;;;29.90;62.40;;;;;;5051904;28;20021;-69
2022/12/10 10:41:53;;;;;;;31.33;6.65;;;29.90;62.20;;;;;;5062884;28;20395;-69
2022/12/10 10:44:22;;;;;;;20.20;5.53;;;30.00;62.20;;;;;;5055908;28;20079;-69
2022/12/10 10:46:51;;;;;;;26.92;4.32;;;30.00;62.10;;;;;;5062176;28;20017;-70
2022/12/10 10:49:24;;;;;;;22.58;3.72;;;30.10;62.00;;;;;;5058771;28;20069;-70
2022/12/10 10:51:51;;;;;;;12.45;2.97;;;30.10;61.60;;;;;;5060889;28;20017;-69
2022/12/10 10:54:42;;;;;;;25.08;4.78;;;30.20;61.40;;;;;;5061532;28;20412;-70
2022/12/10 10:57:16;;;;;;;11.05;1.88;;;30.20;61.40;;;;;;5054175;28;20456;-70
2022/12/10 10:59:43;;;;;;;12.95;2.72;;;30.30;61.40;;;;;;5061075;28;20021;-70
2022/12/10 11:02:18;;;;;;;12.20;2.78;;;30.20;61.30;;;;;;5063156;28;20383;-70
2022/12/10 11:04:51;;;;;;;14.63;2.33;;;30.20;61.90;;;;;;5056367;28;20034;-70
2022/12/10 11:07:32;;;;;;;9.00;2.70;;;30.20;61.40;;;;;;5055922;28;20021;-71
2022/12/10 11:09:59;;;;;;;11.48;2.67;;;30.10;61.30;;;;;;5058458;28;20162;-70
2022/12/10 11:12:38;;;;;;;6.28;2.25;;;30.10;61.50;;;;;;5060618;28;20476;-70
2022/12/10 11:15:29;;;;;;;7.93;2.50;;;30.10;61.60;;;;;;5058001;28;20029;-69
2022/12/10 11:17:57;;;;;;;18.08;3.58;;;30.20;61.70;;;;;;5054715;28;20115;-70
2022/12/10 11:20:31;;;;;;;38.30;4.43;;;30.20;61.60;;;;;;5060052;28;20025;-70
2022/12/10 11:23:01;;;;;;;27.75;4.75;;;30.20;61.70;;;;;;5055956;28;20496;-69
2022/12/10 11:25:46;;;;;;;11.45;3.92;;;30.20;61.60;;;;;;5058836;28;20021;-70
2022/12/10 11:28:18;;;;;;;;;;;30.20;61.70;;;;;;5060153;28;20061;-69
2022/12/10 11:30:54;;;;;;;17.48;3.28;;;30.20;61.50;;;;;;5065836;28;19908;-71
2022/12/10 11:33:31;;;;;;;16.50;5.72;;;30.30;61.50;;;;;;5060043;28;20123;-69
2022/12/10 11:36:02;;;;;;;12.80;3.55;;;30.30;61.50;;;;;;5065625;28;20354;-70
2022/12/10 11:38:50;;;;;;;20.23;3.20;;;30.30;61.50;;;;;;5062081;28;20790;-71
2022/12/10 11:42:08;;;;;;;22.02;3.75;;;30.30;61.30;;;;;;5059343;28;20096;-69
2022/12/10 11:44:58;;;;;;;6.43;3.55;;;30.20;61.30;;;;;;5054884;28;20045;-69
2022/12/10 11:47:40;;;;;;;15.43;3.22;;;30.30;61.30;;;;;;5060736;28;20601;-69
2022/12/10 11:50:25;;;;;;;13.05;2.58;;;30.20;61.10;;;;;;5063755;28;20469;-72
2022/12/10 11:53:15;;;;;;;10.32;2.42;;;30.20;61.30;;;;;;5053367;28;20463;-71
2022/12/10 11:56:03;;;;;;;8.32;2.42;;;30.10;61.30;;;;;;5060752;28;20016;-69
2022/12/10 11:59:09;;;;;;;9.10;2.05;;;30.10;61.60;;;;;;5059710;28;20047;-70
2022/12/10 12:02:07;;;;;;;9.35;1.80;;;30.00;61.70;;;;;;5057821;28;20085;-70
2022/12/10 12:04:58;;;;;;;10.05;2.25;;;30.00;61.90;;;;;;5061898;28;20036;-69
2022/12/10 12:07:31;;;;;;;8.65;2.08;;;29.90;62.10;;;;;;5059028;28;20383;-70
2022/12/10 12:10:19;;;;;;;9.68;2.45;;;29.90;62.10;;;;;;5057248;28;20009;-70
2022/12/10 14:15:56;;;;;;;15.10;4.57;;;28.60;65.30;;;;;;5110215;27;20489;-65
2022/12/10 14:18:23;;;;;;;15.30;4.82;;;28.80;65.00;;;;;;5092350;28;20085;-64
2022/12/10 14:20:53;;;;;;;17.05;4.80;;;28.80;64.70;;;;;;5091815;28;20103;-66
2022/12/10 14:23:40;;;;;;;13.38;4.07;;;28.70;64.50;;;;;;5092810;28;20031;-65
2022/12/10 14:26:19;;;;;;;11.23;3.78;;;28.70;64.40;;;;;;5093363;28;20024;-65
2022/12/10 14:29:32;;;;;;;13.05;5.80;;;28.70;64.20;;;;;;5093950;28;20020;-65
2022/12/10 14:31:58;;;;;;;13.38;4.15;;;28.70;64.00;;;;;;5085587;28;20032;-65
2022/12/10 14:34:29;;;;;;;15.15;4.63;;;28.70;64.00;;;;;;5095607;28;20020;-66
2022/12/10 14:37:04;;;;;;;17.20;4.93;;;28.70;63.90;;;;;;5094285;28;20027;-67
2022/12/10 14:39:33;;;;;;;12.38;5.45;;;28.70;64.60;;;;;;5098398;28;20036;-64
2022/12/10 14:42:03;;;;;;;20.80;7.15;;;28.70;63.90;;;;;;5092982;28;20025;-66
2022/12/10 14:44:31;;;;;;;23.70;9.27;;;28.60;63.90;;;;;;5095936;28;20036;-67
2022/12/10 14:47:25;;;;;;;21.20;9.13;;;28.60;64.10;;;;;;5098077;28;20617;-65
2022/12/10 14:49:55;;;;;;;16.85;6.70;;;28.60;65.10;;;;;;5090599;28;20041;-66
2022/12/10 14:52:25;;;;;;;15.50;4.70;;;28.50;64.50;;;;;;5098012;28;20027;-67
2022/12/10 14:54:52;;;;;;;19.58;4.90;;;28.50;64.00;;;;;;5094844;28;20032;-66
2022/12/10 14:57:42;;;;;;;13.13;3.85;;;28.30;64.80;;;;;;5099767;28;20726;-66
2022/12/10 15:00:20;;;;;;;14.90;4.50;;;28.30;65.20;;;;;;5097798;28;20055;-65
2022/12/10 15:03:00;;;;;;;12.25;4.35;;;28.30;65.30;;;;;;5094003;28;20031;-67
2022/12/10 15:05:32;;;;;;;15.32;3.88;;;28.30;65.20;;;;;;5093573;28;20031;-66
2022/12/10 15:08:02;;;;;;;9.25;4.18;;;28.30;65.00;;;;;;5092455;28;20048;-66
2022/12/10 15:10:43;;;;;;;16.60;4.55;;;28.30;64.90;;;;;;5097880;28;20016;-65
2022/12/10 15:13:22;;;;;;;16.58;4.97;;;28.30;65.00;;;;;;5094170;28;20020;-68
2022/12/10 15:15:50;;;;;;;18.42;7.72;;;28.30;65.00;;;;;;5086562;28;20124;-68
2022/12/10 15:18:28;;;;;;;15.57;7.85;;;28.20;65.00;;;;;;5076556;28;20027;-66
2022/12/10 15:21:13;;;;;;;15.45;8.38;;;28.20;65.00;;;;;;5083175;28;20020;-66
2022/12/10 15:23:40;;;;;;;;;;;28.20;64.90;;;;;;5078957;28;20032;-65
2022/12/10 15:26:13;;;;;;;13.00;5.03;;;28.20;64.80;;;;;;5081788;28;20352;-67
2022/12/10 15:28:41;;;;;;;13.55;4.32;;;28.20;64.70;;;;;;5080103;28;20348;-65
2022/12/10 15:31:25;;;;;;;18.17;4.57;;;28.20;64.80;;;;;;5075925;28;20027;-65
2022/12/10 15:33:55;;;;;;;12.13;4.10;;;28.20;65.20;;;;;;5074699;28;20073;-65
2022/12/10 15:36:35;;;;;;;14.05;5.80;;;28.20;65.10;;;;;;5080008;28;20021;-67
2022/12/10 15:39:11;;;;;;;13.38;4.63;;;28.20;65.10;;;;;;5082191;28;20568;-63
2022/12/10 15:41:40;;;;;;;11.20;3.85;;;28.10;64.90;;;;;;5073916;28;20052;-64
2022/12/10 15:44:26;;;;;;;13.88;5.65;;;28.10;64.80;;;;;;5079716;28;20359;-66
2022/12/10 15:47:18;;;;;;;31.23;26.90;;;28.10;64.80;;;;;;5061950;28;20025;-67
2022/12/10 15:49:46;;;;;;;30.40;23.73;;;28.10;64.80;;;;;;5079696;28;20024;-68
2022/12/10 15:52:34;;;;;;;22.55;13.93;;;28.10;64.80;;;;;;5078234;28;20031;-67
2022/12/10 15:55:01;;;;;;;12.52;6.03;;;28.10;64.60;;;;;;5080900;28;20344;-67
2022/12/10 15:57:39;;;;;;;13.70;6.95;;;28.10;64.70;;;;;;5084125;28;20083;-67
2022/12/10 16:00:22;;;;;;;12.20;5.57;;;28.10;64.60;;;;;;5071416;28;20036;-67
2022/12/10 16:03:04;;;;;;;13.68;6.90;;;28.10;64.40;;;;;;5079029;28;20028;-66
2022/12/10 16:05:33;;;;;;;14.05;6.38;;;28.10;63.90;;;;;;5085811;28;20021;-65
2022/12/10 16:08:07;;;;;;;12.30;5.70;;;28.10;63.80;;;;;;5085936;28;20129;-64
2022/12/10 16:10:33;;;;;;;11.77;5.15;;;28.00;63.80;;;;;;5080031;28;20126;-67
2022/12/10 16:13:05;;;;;;;18.20;5.32;;;28.00;63.60;;;;;;5080959;28;20020;-66
2022/12/10 16:15:42;;;;;;;16.52;5.15;;;28.00;63.80;;;;;;5077016;28;20513;-65
2022/12/10 16:18:10;;;;;;;12.55;5.47;;;28.00;64.10;;;;;;5077096;28;20115;-65
2022/12/10 16:20:37;;;;;;;10.55;4.43;;;28.00;64.50;;;;;;5081539;28;20510;-65
2022/12/10 16:23:05;;;;;;;11.38;5.70;;;27.90;64.80;;;;;;5081891;28;20526;-64
2022/12/10 16:25:34;;;;;;;13.63;5.80;;;27.90;65.10;;;;;;5077086;28;20537;-65
2022/12/10 16:28:02;;;;;;;10.75;5.25;;;27.80;65.10;;;;;;5076556;28;20017;-65
2022/12/10 16:30:36;;;;;;;12.98;4.38;;;27.80;65.30;;;;;;5075855;28;20027;-65
2022/12/10 16:33:04;;;;;;;11.90;4.60;;;27.70;65.50;;;;;;5069814;28;20027;-66
2022/12/10 16:35:31;;;;;;;17.40;6.25;;;27.70;66.00;;;;;;5084051;28;20108;-65
2022/12/10 16:37:58;;;;;;;12.93;5.70;;;27.70;66.30;;;;;;5072403;28;20447;-65
2022/12/10 16:40:27;;;;;;;20.52;7.63;;;27.60;66.50;;;;;;5072509;28;20024;-65
2022/12/10 16:42:54;;;;;;;19.23;9.15;;;27.60;66.80;;;;;;5080723;28;20032;-66
2022/12/10 16:45:26;;;;;;;25.63;7.95;;;27.60;67.00;;;;;;5106195;27;20024;-66
2022/12/10 16:47:53;;;;;;;20.02;5.88;;;27.60;67.10;;;;;;5072849;28;20039;-67
2022/12/10 16:50:20;;;;;;;14.05;5.68;;;27.50;67.30;;;;;;5078834;28;20021;-65
2022/12/10 16:52:47;;;;;;;9.23;4.47;;;27.50;67.50;;;;;;5082644;28;20028;-66
2022/12/10 16:55:17;;;;;;;16.42;6.38;;;27.50;67.60;;;;;;5073588;28;20024;-68
2022/12/10 16:57:45;;;;;;;10.18;4.22;;;27.50;67.80;;;;;;5074819;28;20020;-65
2022/12/10 17:00:20;;;;;;;11.23;4.85;;;27.50;68.20;;;;;;5071816;28;20104;-66
2022/12/10 17:02:47;;;;;;;14.60;4.97;;;27.50;68.60;;;;;;5082129;28;20076;-65
2022/12/10 17:05:31;;;;;;;14.57;10.68;;;27.40;69.30;;;;;;5074300;28;20021;-64
2022/12/10 17:07:58;;;;;;;17.70;9.00;;;27.40;68.90;;;;;;5080847;28;20081;-65
2022/12/10 17:13:15;;;;;;;16.25;8.00;;;27.40;68.70;;;;;;5077644;28;20440;-65
2022/12/10 17:15:43;;;;;;;7.40;4.70;;;27.40;68.50;;;;;;5080030;28;20039;-64
2022/12/10 17:18:17;;;;;;;6.68;4.22;;;27.30;68.10;;;;;;5073271;28;20016;-65
2022/12/10 17:20:45;;;;;;;3.65;2.42;;;27.30;67.70;;;;;;5074848;28;20020;-63
2022/12/10 17:23:11;;;;;;;4.32;2.58;;;27.30;67.50;;;;;;5079999;28;20032;-66
2022/12/10 17:25:39;;;;;;;5.13;3.15;;;27.30;67.30;;;;;;5079312;28;20028;-70
2022/12/10 17:28:11;;;;;;;5.13;2.70;;;27.30;67.10;;;;;;5073246;28;20016;-66
2022/12/10 17:30:38;;;;;;;10.00;4.97;;;27.30;67.10;;;;;;5072690;28;20627;-66
2022/12/10 17:33:11;;;;;;;9.80;7.97;;;27.30;67.10;;;;;;5071778;28;20020;-66
2022/12/10 17:35:39;;;;;;;11.80;8.35;;;27.30;67.00;;;;;;5071600;28;20489;-68
2022/12/10 17:38:05;;;;;;;12.75;7.53;;;27.30;67.00;;;;;;5072781;28;20024;-67
2022/12/10 17:40:33;;;;;;;10.00;6.53;;;27.30;66.90;;;;;;5075285;28;20475;-65
2022/12/10 17:43:00;;;;;;;9.05;5.50;;;27.30;67.10;;;;;;5076983;28;20029;-67
2022/12/10 17:45:26;;;;;;;5.43;3.97;;;27.30;66.70;;;;;;5077100;28;20399;-67
2022/12/10 17:47:56;;;;;;;6.90;3.10;;;27.30;66.50;;;;;;5072995;28;20036;-68
2022/12/10 17:50:32;;;;;;;7.63;5.45;;;27.30;66.30;;;;;;5071978;28;20762;-68
2022/12/10 17:53:00;;;;;;;9.10;6.10;;;27.30;66.20;;;;;;5075319;28;20564;-68
2022/12/10 17:55:27;;;;;;;6.20;5.10;;;27.30;65.80;;;;;;5077039;28;20901;-65
2022/12/10 17:57:56;;;;;;;5.28;4.78;;;27.30;65.50;;;;;;5074924;28;20036;-65
2022/12/10 18:00:24;;;;;;;5.57;2.88;;;27.30;65.30;;;;;;5073693;28;20031;-66
2022/12/10 18:02:51;;;;;;;8.68;3.05;;;27.30;64.90;;;;;;5079503;28;20081;-66
2022/12/10 18:05:17;;;;;;;16.48;2.58;;;27.30;64.50;;;;;;5080676;28;20425;-65
2022/12/10 18:07:44;;;;;;;10.98;3.03;;;27.30;64.10;;;;;;5079200;28;20047;-65
2022/12/10 18:10:18;;;;;;;7.32;2.03;;;27.30;63.90;;;;;;5075151;28;20112;-64
2022/12/10 18:12:45;;;;;;;4.53;2.10;;;27.30;63.70;;;;;;5079587;28;20011;-65
2022/12/10 18:15:12;;;;;;;2.55;1.10;;;27.30;63.40;;;;;;5074087;28;20086;-67
2022/12/10 18:17:40;;;;;;;5.70;3.03;;;27.30;63.20;;;;;;5074750;28;20025;-66
2022/12/10 18:20:13;;;;;;;4.97;3.47;;;27.30;63.20;;;;;;5075646;28;20487;-68
2022/12/10 18:22:39;;;;;;;6.07;3.42;;;27.30;63.20;;;;;;5078626;28;20043;-64
2022/12/10 18:25:06;;;;;;;4.18;2.97;;;27.30;63.30;;;;;;5075340;28;20042;-65
2022/12/10 18:27:33;;;;;;;3.45;2.92;;;27.30;63.30;;;;;;5072301;28;20062;-65
2022/12/10 18:29:59;;;;;;;3.08;2.13;;;27.30;63.20;;;;;;5074841;28;20040;-66
2022/12/10 18:32:26;;;;;;;2.60;2.22;;;27.30;63.20;;;;;;5080648;28;20055;-64
2022/12/10 18:34:52;;;;;;;3.08;1.70;;;27.30;63.20;;;;;;5076948;28;20385;-64
2022/12/10 18:37:19;;;;;;;2.67;1.83;;;27.30;63.10;;;;;;5078947;28;20034;-65
2022/12/10 18:39:46;;;;;;;3.97;1.60;;;27.30;63.00;;;;;;5076316;28;20024;-65
2022/12/10 18:42:12;;;;;;;3.22;1.38;;;27.30;63.00;;;;;;5076201;28;20052;-65
2022/12/10 18:44:39;;;;;;;5.38;1.60;;;27.30;63.00;;;;;;5074868;28;20039;-66
2022/12/10 18:47:11;;;;;;;6.10;1.77;;;27.20;62.80;;;;;;5077911;28;20036;-66
2022/12/10 18:49:38;;;;;;;4.47;2.47;;;27.30;63.00;;;;;;5070117;28;20024;-65
2022/12/10 18:52:05;;;;;;;5.43;2.38;;;27.20;63.00;;;;;;5073586;28;20060;-66
2022/12/10 18:54:31;;;;;;;9.52;3.95;;;27.20;63.20;;;;;;5086095;28;20486;-65
2022/12/10 18:56:58;;;;;;;12.73;9.80;;;27.20;63.50;;;;;;5083338;28;20032;-65
2022/12/10 18:59:24;;;;;;;13.02;10.48;;;27.20;63.90;;;;;;5080444;28;20116;-67
2022/12/10 19:01:51;;;;;;;14.68;11.40;;;27.20;63.90;;;;;;5074162;28;20036;-66
2022/12/10 19:04:17;;;;;;;9.93;7.78;;;27.20;64.00;;;;;;5085390;28;20040;-65
2022/12/10 19:06:44;;;;;;;9.90;6.30;;;27.10;64.10;;;;;;5084232;28;20127;-67
2022/12/10 19:09:19;;;;;;;11.02;5.32;;;27.10;64.90;;;;;;5067860;28;20017;-67
2022/12/10 19:11:48;;;;;;;7.70;4.07;;;27.10;64.40;;;;;;5076394;28;20089;-68
2022/12/10 19:14:16;;;;;;;7.82;3.60;;;27.10;64.50;;;;;;5077839;28;20094;-67
2022/12/10 19:16:42;;;;;;;11.05;3.17;;;27.00;64.50;;;;;;5076700;28;20032;-66
2022/12/10 19:19:12;;;;;;;6.10;3.03;;;27.00;64.70;;;;;;5085311;28;20493;-67
2022/12/10 19:21:38;;;;;;;7.32;2.47;;;27.00;64.70;;;;;;5080522;28;20016;-65
2022/12/10 19:24:07;;;;;;;9.52;5.55;;;27.00;64.80;;;;;;5079864;28;20352;-69
2022/12/10 19:26:36;;;;;;;32.58;26.55;;;27.00;64.90;;;;;;5072577;28;20143;-65
2022/12/10 19:29:24;;;;;;;26.88;21.25;;;26.90;65.00;;;;;;5074890;28;20480;-66
2022/12/10 19:31:51;;;;;;;16.63;13.07;;;26.90;65.10;;;;;;5073332;28;20506;-66
2022/12/10 19:34:19;;;;;;;16.67;10.00;;;26.90;65.20;;;;;;5083540;28;20482;-65
2022/12/10 19:36:46;;;;;;;10.90;6.55;;;26.80;65.30;;;;;;5084075;28;20024;-66
2022/12/10 19:39:20;;;;;;;13.90;6.32;;;26.90;65.40;;;;;;5085937;28;20020;-65
2022/12/10 19:41:49;;;;;;;16.75;4.40;;;26.80;65.50;;;;;;5085193;28;20115;-66
2022/12/10 19:44:15;;;;;;;11.82;4.10;;;26.80;65.60;;;;;;5079263;28;20085;-66
2022/12/10 19:46:42;;;;;;;10.15;3.58;;;26.80;65.70;;;;;;5073355;28;20043;-65
2022/12/10 19:49:16;;;;;;;9.30;3.28;;;26.80;65.70;;;;;;5066425;28;20525;-67
2022/12/10 19:51:43;;;;;;;7.85;3.00;;;26.70;65.80;;;;;;5076434;28;20028;-66
2022/12/10 19:54:10;;;;;;;6.78;2.13;;;26.70;65.70;;;;;;5074763;28;20471;-66
2022/12/10 19:56:37;;;;;;;14.40;4.20;;;26.70;65.80;;;;;;5078792;28;20017;-66
2022/12/10 19:59:11;;;;;;;10.82;3.33;;;26.70;66.00;;;;;;5081768;28;20355;-66
2022/12/10 20:01:37;;;;;;;12.60;2.60;;;26.70;66.30;;;;;;5078523;28;20008;-66
2022/12/10 20:04:04;;;;;;;11.85;3.28;;;26.70;66.60;;;;;;5079094;28;22217;-67
2022/12/10 20:06:37;;;;;;;15.77;4.25;;;26.70;66.90;;;;;;5081115;28;20416;-67
2022/12/10 20:09:28;;;;;;;7.80;2.80;;;26.70;66.90;;;;;;5073758;28;20025;-66
2022/12/10 20:11:55;;;;;;;13.82;2.60;;;26.70;67.00;;;;;;5072134;28;20024;-66
2022/12/10 22:19:08;;;;;;;5.82;2.15;;;25.60;67.50;;;;;;5097061;27;21213;-66
2022/12/10 22:21:34;;;;;;;6.90;1.88;;;25.80;68.50;;;;;;5094262;28;20096;-65
2022/12/10 22:24:01;;;;;;;9.85;2.42;;;25.80;68.40;;;;;;5094749;28;20476;-64
2022/12/10 22:26:28;;;;;;;7.20;2.35;;;25.90;68.40;;;;;;5101671;28;20379;-65
2022/12/10 22:28:56;;;;;;;5.47;2.60;;;25.90;68.10;;;;;;5096798;28;20525;-65
2022/12/10 22:31:22;;;;;;;5.93;1.63;;;25.90;67.90;;;;;;5096019;28;20020;-65
2022/12/10 22:33:48;;;;;;;5.40;1.42;;;26.00;67.90;;;;;;5097272;28;20024;-67
2022/12/10 22:36:15;;;;;;;4.00;1.50;;;26.00;67.80;;;;;;5094573;28;20051;-65
2022/12/10 22:38:42;;;;;;;5.50;1.92;;;26.00;67.70;;;;;;5098646;28;20023;-65
2022/12/10 22:41:09;;;;;;;2.47;1.27;;;26.00;67.60;;;;;;5097708;28;20107;-66
2022/12/10 22:43:35;;;;;;;4.88;3.03;;;26.00;67.70;;;;;;5092543;28;20024;-65
2022/12/10 22:46:02;;;;;;;6.32;2.17;;;26.00;67.70;;;;;;5101429;28;20095;-65
2022/12/10 22:48:28;;;;;;;2.83;1.08;;;26.00;67.70;;;;;;5095061;28;20042;-66
2022/12/10 22:51:03;;;;;;;3.08;1.23;;;26.00;67.80;;;;;;5099766;28;20020;-65